Time;durP1;ratioP1;P1;durP2;ratioP2;P2;SDS_P1;SDS_P2;PMS_P1;PMS_P2;Temp;Humidity;BMP_temperature;BMP_pressure;BME280_temperature;BME280_humidity;BME280_pressure;Samples;Min_cycle;Max_cycle;Signal;HPM_P1;HPM_P2
2022/04/03 00:02:24;;;;;;;8.15;7.32;;;;;;;-1.02;100.00;95796.19;4992919;28;24425;-74
2022/04/03 00:04:51;;;;;;;8.00;7.20;;;;;;;-1.24;100.00;95789.78;4992841;28;24440;-74
2022/04/03 00:07:17;;;;;;;9.25;8.23;;;;;;;-0.97;100.00;95791.84;4992606;28;24432;-74
2022/04/03 00:09:44;;;;;;;8.95;7.50;;;;;;;-1.16;100.00;95797.28;4992364;28;24421;-74
2022/04/03 00:12:11;;;;;;;7.80;7.10;;;;;;;-1.30;100.00;95793.28;4992415;28;25164;-74
2022/04/03 00:14:38;;;;;;;10.23;7.45;;;;;;;-1.25;100.00;95790.66;4992562;28;24834;-74
2022/04/03 00:17:04;;;;;;;7.75;6.97;;;;;;;-1.26;100.00;95794.91;4992493;28;24448;-74
2022/04/03 00:19:31;;;;;;;7.60;6.80;;;;;;;-1.20;100.00;95796.50;4992399;28;24425;-74
2022/04/03 00:21:57;;;;;;;8.90;7.57;;;;;;;-1.03;100.00;95793.69;4992084;28;24480;-74
2022/04/03 00:24:24;;;;;;;12.07;7.35;;;;;;;-1.19;100.00;95802.41;4992355;28;24515;-74
2022/04/03 00:26:50;;;;;;;8.60;7.05;;;;;;;-1.23;100.00;95799.91;4992006;28;24950;-74
2022/04/03 00:29:18;;;;;;;9.38;7.35;;;;;;;-1.41;100.00;95800.19;4992286;28;24436;-74
2022/04/03 00:31:44;;;;;;;7.57;6.85;;;;;;;-1.33;100.00;95802.66;4992076;28;24428;-74
2022/04/03 00:34:11;;;;;;;9.00;7.80;;;;;;;-1.23;100.00;95796.53;4991206;28;24621;-74
2022/04/03 00:36:37;;;;;;;8.32;7.00;;;;;;;-1.32;100.00;95812.78;4991968;28;24432;-74
2022/04/03 00:39:04;;;;;;;8.32;7.22;;;;;;;-1.15;100.00;95804.91;4992138;28;24424;-74
2022/04/03 00:41:30;;;;;;;8.13;7.18;;;;;;;-1.32;100.00;95800.06;4991585;28;24433;-74
2022/04/03 00:43:58;;;;;;;8.25;7.35;;;;;;;-1.28;100.00;95805.94;4992053;28;24421;-74
2022/04/03 00:46:28;;;;;;;8.25;7.32;;;;;;;-1.35;100.00;95806.91;4992071;28;24459;-74
2022/04/03 00:48:55;;;;;;;7.78;6.90;;;;;;;-1.44;100.00;95805.34;4991657;28;24962;-74
2022/04/03 00:51:22;;;;;;;8.10;6.75;;;;;;;-1.36;100.00;95803.53;4991839;28;24472;-74
2022/04/03 00:53:48;;;;;;;8.37;6.77;;;;;;;-1.39;100.00;95801.03;4991764;28;24490;-73
2022/04/03 00:56:15;;;;;;;8.55;7.25;;;;;;;-1.29;100.00;95814.44;4991587;28;24919;-74
2022/04/03 00:58:42;;;;;;;8.32;6.68;;;;;;;-1.36;100.00;95808.63;4991699;28;25258;-73
2022/04/03 01:01:09;;;;;;;7.72;6.65;;;;;;;-1.31;100.00;95801.75;4991675;28;24420;-73
2022/04/03 01:03:36;;;;;;;7.35;6.43;;;;;;;-1.35;100.00;95807.75;4991642;28;24429;-74
2022/04/03 01:06:03;;;;;;;8.93;7.20;;;;;;;-1.33;100.00;95813.66;4991599;28;24424;-73
2022/04/03 01:08:30;;;;;;;7.68;6.88;;;;;;;-1.30;100.00;95808.53;4991429;28;24428;-74
2022/04/03 01:10:56;;;;;;;8.15;7.15;;;;;;;-1.31;100.00;95806.81;4991437;28;24425;-73
2022/04/03 01:13:25;;;;;;;9.10;7.20;;;;;;;-1.21;100.00;95810.06;4991578;28;24427;-74
2022/04/03 01:15:52;;;;;;;9.68;7.63;;;;;;;-1.18;100.00;95809.19;4991348;28;24444;-74
2022/04/03 01:18:18;;;;;;;10.60;7.25;;;;;;;-1.10;100.00;95817.53;4991276;28;24652;-74
2022/04/03 01:20:46;;;;;;;8.10;7.30;;;;;;;-1.23;100.00;95809.25;4991171;28;24779;-74
2022/04/03 01:23:13;;;;;;;7.85;6.85;;;;;;;-1.24;100.00;95818.56;4991184;28;24428;-74
2022/04/03 01:25:40;;;;;;;8.02;6.95;;;;;;;-1.31;100.00;95823.78;4991331;28;24413;-74
2022/04/03 01:28:09;;;;;;;9.30;7.45;;;;;;;-1.11;100.00;95809.06;4990397;28;24955;-74
2022/04/03 01:30:35;;;;;;;9.82;7.72;;;;;;;-1.18;100.00;95810.03;4991201;28;24520;-74
2022/04/03 01:33:02;;;;;;;8.07;7.28;;;;;;;-1.24;100.00;95812.66;4991243;28;24424;-74
2022/04/03 01:35:28;;;;;;;9.98;8.05;;;;;;;-1.34;100.00;95811.94;4990889;28;24444;-74
2022/04/03 01:37:55;;;;;;;10.05;7.82;;;;;;;-1.34;100.00;95819.56;4991409;28;24425;-73
2022/04/03 01:40:22;;;;;;;8.75;7.80;;;;;;;-1.40;100.00;95814.59;4991112;28;24416;-73
2022/04/03 01:42:50;;;;;;;8.82;7.95;;;;;;;-1.35;100.00;95815.38;4991272;28;24405;-74
2022/04/03 01:45:16;;;;;;;7.75;6.97;;;;;;;-1.40;100.00;95808.69;4992145;28;24429;-74
2022/04/03 01:47:43;;;;;;;8.73;7.88;;;;;;;-1.31;100.00;95817.00;4995154;28;25162;-74
2022/04/03 01:50:10;;;;;;;9.03;8.23;;;;;;;-1.26;100.00;95814.38;4994846;28;25033;-74
2022/04/03 01:52:36;;;;;;;9.30;8.20;;;;;;;-1.20;100.00;95816.00;4995325;28;24823;-74
2022/04/03 01:55:03;;;;;;;9.45;8.52;;;;;;;-1.24;100.00;95817.75;4995020;28;24445;-73
2022/04/03 01:57:29;;;;;;;11.77;8.17;;;;;;;-1.16;100.00;95812.53;4995133;28;24543;-74
2022/04/03 01:59:57;;;;;;;11.68;8.45;;;;;;;-1.17;100.00;95815.94;4994739;28;24436;-74
2022/04/03 02:02:23;;;;;;;9.85;8.10;;;;;;;-1.27;100.00;95805.91;4994891;28;24846;-74
2022/04/03 02:04:50;;;;;;;12.13;8.77;;;;;;;-1.30;100.00;95812.75;4994701;28;24421;-74
2022/04/03 02:07:16;;;;;;;9.93;8.90;;;;;;;-1.46;100.00;95820.59;4994722;28;24432;-74
2022/04/03 02:09:43;;;;;;;10.40;9.30;;;;;;;-1.52;100.00;95818.19;4994635;28;24483;-74
2022/04/03 02:12:10;;;;;;;10.00;9.02;;;;;;;-1.35;100.00;95823.00;4994796;28;24850;-74
2022/04/03 02:14:37;;;;;;;11.98;9.23;;;;;;;-1.33;100.00;95830.59;4994677;28;24515;-74
2022/04/03 02:17:04;;;;;;;10.40;9.35;;;;;;;-1.36;100.00;95818.78;4994459;28;24975;-74
2022/04/03 02:19:31;;;;;;;11.55;9.80;;;;;;;-1.40;100.00;95822.22;5025422;23;24480;-77
2022/04/03 02:21:57;;;;;;;11.60;9.80;;;;;;;-1.37;100.00;95821.31;5014101;28;24424;-77
2022/04/03 02:24:24;;;;;;;10.80;9.25;;;;;;;-1.38;100.00;95822.19;5014062;28;24833;-75
2022/04/03 02:26:51;;;;;;;10.97;9.87;;;;;;;-1.30;100.00;95823.78;5013758;28;24428;-76
2022/04/03 02:29:17;;;;;;;11.68;9.88;;;;;;;-1.24;100.00;95823.66;5011800;28;25005;-76
2022/04/03 02:31:44;;;;;;;11.80;9.50;;;;;;;-1.35;100.00;95824.69;4999641;28;24435;-76
2022/04/03 02:34:12;;;;;;;10.90;9.80;;;;;;;-1.32;100.00;95820.41;4994302;28;24424;-76
2022/04/03 02:36:40;;;;;;;11.10;10.00;;;;;;;-1.33;100.00;95826.34;4994256;28;24420;-76
2022/04/03 02:39:06;;;;;;;12.35;10.68;;;;;;;-1.34;100.00;95832.28;5002775;28;24433;-76
2022/04/03 02:41:33;;;;;;;13.30;10.70;;;;;;;-1.28;100.00;95831.34;5009192;28;24541;-76
2022/04/03 02:43:59;;;;;;;11.43;9.57;;;;;;;-1.43;100.00;95823.97;4994061;28;24514;-76
2022/04/03 02:46:26;;;;;;;14.10;10.73;;;;;;;-1.46;100.00;95832.47;4993731;28;24954;-76
2022/04/03 02:48:52;;;;;;;11.57;10.25;;;;;;;-1.51;100.00;95822.38;4993995;28;24500;-76
2022/04/03 02:51:20;;;;;;;12.80;10.80;;;;;;;-1.48;100.00;95827.44;4993641;28;24977;-76
2022/04/03 02:53:47;;;;;;;11.75;10.38;;;;;;;-1.56;100.00;95836.00;4994120;28;24440;-76
2022/04/03 02:56:13;;;;;;;12.63;10.25;;;;;;;-1.39;100.00;95836.59;4993389;28;24444;-76
2022/04/03 02:58:40;;;;;;;11.32;10.23;;;;;;;-1.40;100.00;95832.38;4996258;28;24428;-76
2022/04/03 03:01:06;;;;;;;10.88;9.85;;;;;;;-1.43;100.00;95831.59;5012057;28;24523;-76
2022/04/03 03:03:33;;;;;;;12.07;10.80;;;;;;;-1.37;100.00;95836.56;4994002;28;24652;-76
2022/04/03 03:05:59;;;;;;;13.85;11.57;;;;;;;-1.42;100.00;95836.66;4993747;28;24417;-76
2022/04/03 03:08:27;;;;;;;11.65;10.45;;;;;;;-1.43;100.00;95827.34;4993653;28;24436;-76
2022/04/03 03:10:53;;;;;;;11.38;10.18;;;;;;;-1.44;100.00;95832.47;4993341;28;24429;-76
2022/04/03 03:13:20;;;;;;;12.23;10.93;;;;;;;-1.44;100.00;95828.22;4993590;28;24479;-76
2022/04/03 03:15:47;;;;;;;12.02;10.82;;;;;;;-1.39;100.00;95830.69;4993257;28;24556;-76
2022/04/03 03:18:13;;;;;;;11.60;10.32;;;;;;;-1.41;100.00;95823.06;4993371;28;24440;-76
2022/04/03 03:20:40;;;;;;;11.45;10.35;;;;;;;-1.57;100.00;95829.25;4993071;28;24970;-76
2022/04/03 03:23:06;;;;;;;12.98;11.63;;;;;;;-1.71;100.00;95827.78;4993358;28;24428;-76
2022/04/03 03:25:34;;;;;;;11.35;10.15;;;;;;;-1.59;100.00;95826.75;4993373;28;24464;-76
2022/04/03 03:28:01;;;;;;;12.50;11.20;;;;;;;-1.60;100.00;95831.84;4993077;28;24432;-76
2022/04/03 03:30:28;;;;;;;14.17;11.73;;;;;;;-1.53;100.00;95835.97;4996431;28;24460;-76
2022/04/03 03:32:54;;;;;;;14.05;11.05;;;;;;;-1.64;100.00;95827.66;5012863;28;24425;-76
2022/04/03 03:35:21;;;;;;;12.60;11.30;;;;;;;-1.68;100.00;95837.03;4993639;28;24491;-76
2022/04/03 03:37:47;;;;;;;11.80;10.60;;;;;;;-1.56;100.00;95836.88;4993063;28;24799;-76
2022/04/03 03:40:14;;;;;;;13.55;11.32;;;;;;;-1.54;100.00;95837.66;4992912;28;24958;-76
2022/04/03 03:42:43;;;;;;;11.57;10.48;;;;;;;-1.61;100.00;95837.78;4992870;28;24807;-76
2022/04/03 03:45:11;;;;;;;14.27;11.68;;;;;;;-1.75;100.00;95837.97;4992872;28;24429;-76
2022/04/03 03:47:37;;;;;;;11.80;10.60;;;;;;;-1.65;100.00;95844.59;4992766;28;24428;-76
2022/04/03 03:50:04;;;;;;;12.88;11.68;;;;;;;-1.80;100.00;95848.19;4992727;28;24425;-76
2022/04/03 03:52:31;;;;;;;12.30;11.07;;;;;;;-1.67;100.00;95845.47;4992923;28;24984;-76
2022/04/03 03:54:58;;;;;;;11.73;10.38;;;;;;;-1.65;100.00;95848.84;4992672;28;24891;-76
2022/04/03 03:57:24;;;;;;;12.90;11.60;;;;;;;-1.77;100.00;95848.16;4992600;28;24544;-76
2022/04/03 03:59:52;;;;;;;12.77;10.60;;;;;;;-1.80;100.00;95849.91;4992605;28;24428;-76
2022/04/03 04:02:19;;;;;;;17.13;12.07;;;;;;;-1.88;100.00;95854.25;4992752;28;24413;-76
2022/04/03 04:04:45;;;;;;;12.35;11.02;;;;;;;-1.91;100.00;95857.66;4992691;28;24421;-76
2022/04/03 04:07:12;;;;;;;11.48;10.38;;;;;;;-1.80;100.00;95852.44;4992568;28;24467;-76
2022/04/03 04:09:39;;;;;;;10.88;9.90;;;;;;;-1.72;100.00;95848.09;4992196;28;24465;-76
2022/04/03 04:12:06;;;;;;;12.05;10.75;;;;;;;-1.68;100.00;95849.72;4992521;28;24462;-76
2022/04/03 04:14:33;;;;;;;11.68;10.20;;;;;;;-1.63;100.00;95857.25;4992795;28;24806;-76
2022/04/03 04:17:01;;;;;;;11.93;10.73;;;;;;;-1.36;100.00;95859.44;4992307;28;24508;-76
2022/04/03 04:19:28;;;;;;;12.20;10.70;;;;;;;-1.65;100.00;95864.09;4992105;28;24499;-76
2022/04/03 04:21:56;;;;;;;14.43;11.52;;;;;;;-1.72;100.00;95863.31;4992122;28;24511;-76
2022/04/03 04:24:22;;;;;;;11.75;10.57;;;;;;;-1.64;100.00;95861.50;4995895;28;24433;-77
2022/04/03 04:26:49;;;;;;;14.57;11.35;;;;;;;-1.80;100.00;95868.50;5011729;28;24429;-76
2022/04/03 04:29:15;;;;;;;14.68;10.98;;;;;;;-1.75;100.00;95869.25;4993333;28;25281;-76
2022/04/03 04:31:42;;;;;;;12.25;10.98;;;;;;;-1.85;100.00;95866.91;4991923;28;24429;-76
2022/04/03 04:34:09;;;;;;;12.07;10.85;;;;;;;-1.75;100.00;95871.81;4995202;28;24420;-76
2022/04/03 04:36:36;;;;;;;12.25;10.85;;;;;;;-1.78;100.00;95871.88;5006575;28;24456;-77
2022/04/03 04:39:02;;;;;;;14.23;10.20;;;;;;;-1.61;100.00;95861.47;4991672;28;24441;-76
2022/04/03 04:41:29;;;;;;;12.63;10.90;;;;;;;-1.60;100.00;95864.84;4992040;28;24783;-76
2022/04/03 04:43:55;;;;;;;11.80;10.60;;;;;;;-1.62;100.00;95872.50;4992176;28;24409;-76
2022/04/03 04:46:22;;;;;;;11.55;10.35;;;;;;;-1.55;100.00;95871.56;5005236;28;24487;-76
2022/04/03 04:48:48;;;;;;;11.65;10.45;;;;;;;-1.54;100.00;95877.47;5011240;28;24448;-76
2022/04/03 04:51:16;;;;;;;10.65;9.55;;;;;;;-1.50;100.00;95882.47;4993236;28;24440;-76
2022/04/03 04:53:43;;;;;;;10.90;9.80;;;;;;;-1.43;100.00;95888.31;4991590;28;24491;-76
2022/04/03 04:56:09;;;;;;;11.73;10.60;;;;;;;-1.41;100.00;95886.56;4991574;28;24533;-76
2022/04/03 04:58:36;;;;;;;12.15;10.52;;;;;;;-1.50;100.00;95885.03;4991607;28;24523;-76
2022/04/03 05:01:02;;;;;;;12.70;10.27;;;;;;;-1.51;100.00;95887.59;4991421;28;24429;-76
2022/04/03 05:03:29;;;;;;;18.70;10.38;;;;;;;-1.48;100.00;95890.09;4991484;28;24827;-76
2022/04/03 05:05:56;;;;;;;14.50;10.65;;;;;;;-1.44;100.00;95890.91;4991305;28;24409;-77
2022/04/03 05:08:24;;;;;;;12.10;10.80;;;;;;;-1.39;100.00;95892.50;4991569;28;24440;-76
2022/04/03 05:10:53;;;;;;;11.15;10.05;;;;;;;-1.50;100.00;95899.44;4991093;28;24959;-76
2022/04/03 05:13:25;;;;;;;12.07;9.88;;;;;;;-1.34;100.00;95893.25;5002325;28;24969;-76
2022/04/03 05:15:52;;;;;;;11.38;10.25;;;;;;;-1.49;100.00;95896.84;5009457;28;24458;-76
2022/04/03 05:18:18;;;;;;;11.80;10.63;;;;;;;-1.64;100.00;95904.69;5006647;28;24834;-76
2022/04/03 05:20:46;;;;;;;10.35;9.38;;;;;;;-1.65;100.00;95902.16;5008731;28;24425;-76
2022/04/03 05:23:12;;;;;;;11.10;9.98;;;;;;;-1.62;100.00;95900.44;5009614;28;24464;-76
2022/04/03 05:25:40;;;;;;;11.45;10.35;;;;;;;-1.35;100.00;95899.22;5006799;28;25024;-76
2022/04/03 05:28:08;;;;;;;12.60;10.50;;;;;;;-1.39;100.00;95905.19;5009310;28;25031;-76
2022/04/03 05:30:35;;;;;;;12.27;10.60;;;;;;;-1.48;100.00;95912.97;5009217;28;24439;-76
2022/04/03 05:33:01;;;;;;;12.75;10.30;;;;;;;-1.47;100.00;95914.63;5009692;28;24479;-76
2022/04/03 05:35:28;;;;;;;11.45;10.43;;;;;;;-1.40;100.00;95916.22;5009353;28;24511;-76
2022/04/03 05:37:54;;;;;;;12.13;10.18;;;;;;;-1.48;100.00;95918.88;5010168;28;24459;-76
2022/04/03 05:40:21;;;;;;;14.88;11.07;;;;;;;-1.48;100.00;95920.56;5008983;28;24432;-77
2022/04/03 05:42:49;;;;;;;12.55;11.18;;;;;;;-1.62;100.00;95919.91;5009513;28;24475;-77
2022/04/03 05:45:15;;;;;;;11.33;10.13;;;;;;;-1.24;100.00;95922.75;5009111;28;24795;-76
2022/04/03 05:47:42;;;;;;;12.10;10.90;;;;;;;-1.34;100.00;95921.19;5008824;28;24439;-76
2022/04/03 05:50:09;;;;;;;12.75;11.50;;;;;;;-1.34;100.00;95922.91;5008924;28;24475;-76
2022/04/03 05:52:43;;;;;;;14.02;10.73;;;;;;;-1.48;100.00;95926.50;5009240;28;24444;-76
2022/04/03 05:55:10;;;;;;;11.20;10.10;;;;;;;-1.43;100.00;95931.50;5008847;28;24432;-76
2022/04/03 05:57:37;;;;;;;10.88;9.77;;;;;;;-1.32;100.00;95937.28;5008875;28;24435;-76
2022/04/03 06:00:08;;;;;;;10.23;9.23;;;;;;;-1.39;100.00;95935.69;5008540;28;24548;-76
2022/04/03 06:02:48;;;;;;;10.35;9.18;;;;;;;-1.39;100.00;95945.00;5006804;28;24460;-77
2022/04/03 06:05:15;;;;;;;11.27;9.75;;;;;;;-1.38;100.00;95949.22;5006556;28;24491;-77
2022/04/03 06:07:41;;;;;;;9.68;8.77;;;;;;;-1.28;100.00;95945.69;5008858;28;24849;-76
2022/04/03 06:10:09;;;;;;;15.35;12.00;;;;;;;-1.31;100.00;95950.81;5008447;28;24483;-77
2022/04/03 06:12:35;;;;;;;10.73;9.73;;;;;;;-1.49;100.00;95951.91;5008505;28;24514;-76
2022/04/03 06:15:02;;;;;;;11.60;8.95;;;;;;;-1.31;100.00;95955.91;5008786;28;24837;-76
2022/04/03 06:17:29;;;;;;;9.57;7.70;;;;;;;-1.34;100.00;95951.69;5008423;28;24455;-76
2022/04/03 06:19:56;;;;;;;9.98;8.43;;;;;;;-1.36;100.00;95958.50;5008165;28;24834;-76
2022/04/03 06:22:23;;;;;;;9.65;8.07;;;;;;;-1.17;100.00;95956.56;5008579;28;24436;-76
2022/04/03 06:24:49;;;;;;;10.82;8.85;;;;;;;-1.25;100.00;95963.44;5008004;28;24790;-76
2022/04/03 06:27:15;;;;;;;10.43;8.60;;;;;;;-1.11;100.00;95963.25;5008113;28;24482;-76
2022/04/03 06:29:42;;;;;;;8.57;7.65;;;;;;;-1.04;100.00;95969.91;5008249;28;24502;-76
2022/04/03 06:32:09;;;;;;;13.07;7.80;;;;;;;-1.10;100.00;95967.47;5010625;28;24443;-76
2022/04/03 06:34:37;;;;;;;9.57;8.32;;;;;;;-1.08;100.00;95965.75;5009326;28;24439;-76
2022/04/03 06:37:04;;;;;;;8.73;7.47;;;;;;;-1.13;100.00;95977.69;5011863;28;24992;-76
2022/04/03 06:39:31;;;;;;;8.70;7.78;;;;;;;-1.09;100.00;95981.88;5012131;28;24439;-76
2022/04/03 06:41:57;;;;;;;11.80;7.47;;;;;;;-1.14;100.00;95981.94;5012197;28;24436;-76
2022/04/03 06:44:24;;;;;;;10.63;7.32;;;;;;;-1.02;100.00;95973.28;5012489;28;24444;-76
2022/04/03 06:46:51;;;;;;;12.70;7.23;;;;;;;-1.06;100.00;95982.66;5012238;28;24997;-76
2022/04/03 06:49:17;;;;;;;10.05;6.97;;;;;;;-1.02;100.00;95989.38;5012280;28;25289;-76
2022/04/03 06:51:45;;;;;;;7.53;6.72;;;;;;;-0.77;100.00;95983.94;5012200;28;24507;-77
2022/04/03 06:54:11;;;;;;;7.53;6.72;;;;;;;-0.90;100.00;95993.44;5012898;28;24440;-76
2022/04/03 06:56:38;;;;;;;9.20;7.82;;;;;;;-1.06;100.00;95992.81;5013318;28;24452;-76
2022/04/03 06:59:04;;;;;;;7.43;6.63;;;;;;;-0.69;100.00;95988.91;5013613;28;24446;-77
2022/04/03 07:01:31;;;;;;;9.85;7.05;;;;;;;-0.86;100.00;95990.00;5013305;28;24515;-77
2022/04/03 07:03:57;;;;;;;7.40;6.70;;;;;;;-0.78;100.00;95992.41;5013559;28;24429;-76
2022/04/03 07:06:24;;;;;;;7.82;6.82;;;;;;;-0.78;100.00;96003.47;5013315;28;24466;-76
2022/04/03 07:08:53;;;;;;;8.10;6.67;;;;;;;-0.81;100.00;96000.94;5013180;28;24463;-76
2022/04/03 07:11:19;;;;;;;8.23;7.38;;;;;;;-0.80;100.00;95999.25;5013319;28;24432;-77
2022/04/03 07:13:46;;;;;;;7.78;7.00;;;;;;;-0.88;100.00;96004.44;5013257;28;25000;-77
2022/04/03 07:16:12;;;;;;;9.60;7.67;;;;;;;-0.79;100.00;96001.75;5013069;28;25016;-76
2022/04/03 07:18:39;;;;;;;10.20;7.88;;;;;;;-0.90;100.00;96000.22;5012939;28;24420;-76
2022/04/03 07:21:05;;;;;;;9.23;8.02;;;;;;;-1.00;100.00;96013.09;5012888;28;24474;-76
2022/04/03 07:23:31;;;;;;;8.35;6.13;;;;;;;-0.77;100.00;96005.13;5013120;28;24444;-76
2022/04/03 07:25:59;;;;;;;7.43;6.65;;;;;;;-0.76;100.00;96011.88;5013341;28;24475;-76
2022/04/03 07:28:26;;;;;;;11.18;6.65;;;;;;;-0.71;100.00;96011.81;5013033;28;24794;-76
2022/04/03 07:30:52;;;;;;;8.82;6.35;;;;;;;-0.86;100.00;96012.03;5012869;28;25065;-76
2022/04/03 07:33:20;;;;;;;7.68;5.72;;;;;;;-0.63;100.00;96020.19;5012966;28;24429;-76
2022/04/03 07:35:47;;;;;;;7.20;6.22;;;;;;;-0.41;100.00;96025.75;5012842;28;24871;-76
2022/04/03 07:38:14;;;;;;;6.95;6.25;;;;;;;-0.17;100.00;96023.69;5012718;28;24420;-76
2022/04/03 07:40:40;;;;;;;7.00;6.00;;;;;;;-0.20;100.00;96027.13;5012533;28;24946;-76
2022/04/03 07:43:08;;;;;;;5.90;5.30;;;;;;;-0.04;100.00;96032.78;5012274;28;24447;-75
2022/04/03 07:45:35;;;;;;;7.40;5.90;;;;;;;0.23;100.00;96031.50;5012665;28;24466;-75
2022/04/03 07:48:01;;;;;;;6.75;5.65;;;;;;;0.76;100.00;96032.16;5012528;28;24451;-75
2022/04/03 07:50:27;;;;;;;7.43;5.43;;;;;;;0.65;100.00;96042.56;5012349;28;24830;-75
2022/04/03 07:52:54;;;;;;;5.78;4.90;;;;;;;0.91;100.00;96044.59;5012713;28;24433;-75
2022/04/03 07:55:20;;;;;;;6.85;5.72;;;;;;;0.95;100.00;96042.81;5012631;28;24498;-74
2022/04/03 07:57:47;;;;;;;10.50;5.47;;;;;;;0.60;100.00;96048.63;5012362;28;24471;-74
2022/04/03 08:00:15;;;;;;;6.23;5.30;;;;;;;0.41;100.00;96046.44;5012252;28;24495;-74
2022/04/03 08:02:42;;;;;;;5.47;4.97;;;;;;;0.68;100.00;96047.59;5012600;28;24428;-74
2022/04/03 08:05:10;;;;;;;6.88;5.13;;;;;;;0.70;100.00;96053.53;5012076;28;24432;-74
2022/04/03 08:07:37;;;;;;;5.95;5.18;;;;;;;0.68;100.00;96049.31;5012376;28;24432;-74
2022/04/03 08:10:06;;;;;;;6.20;5.60;;;;;;;0.71;100.00;96056.91;5012180;28;24424;-74
2022/04/03 08:12:33;;;;;;;8.45;5.07;;;;;;;0.54;100.00;96056.38;5012279;28;24451;-74
2022/04/03 08:14:59;;;;;;;6.63;5.25;;;;;;;0.41;100.00;96068.53;5012296;28;24416;-74
2022/04/03 08:17:27;;;;;;;7.05;5.40;;;;;;;0.29;100.00;96064.47;5012004;28;24447;-74
2022/04/03 08:19:54;;;;;;;8.02;6.03;;;;;;;0.32;100.00;96066.13;5012164;28;24435;-73
2022/04/03 08:22:20;;;;;;;6.20;5.15;;;;;;;0.42;100.00;96063.41;5011920;28;24571;-73
2022/04/03 08:24:48;;;;;;;6.68;4.93;;;;;;;0.39;100.00;96063.44;5011304;28;25019;-73
2022/04/03 08:27:15;;;;;;;6.35;5.15;;;;;;;0.26;100.00;96067.09;5009880;28;25270;-73
2022/04/03 08:29:41;;;;;;;9.40;5.18;;;;;;;0.36;100.00;96075.41;5010131;28;24535;-73
2022/04/03 08:32:08;;;;;;;5.80;4.97;;;;;;;0.13;100.00;96073.25;5009602;28;24991;-73
2022/04/03 08:34:36;;;;;;;8.57;5.43;;;;;;;-0.05;100.00;96077.78;5009673;28;24997;-73
2022/04/03 08:37:02;;;;;;;7.55;5.50;;;;;;;0.27;100.00;96073.88;5010270;28;24451;-74
2022/04/03 08:39:29;;;;;;;8.05;5.45;;;;;;;0.33;100.00;96078.00;5010112;28;24471;-73
2022/04/03 08:41:56;;;;;;;7.63;5.53;;;;;;;0.17;100.00;96080.81;5011060;28;24427;-75
2022/04/03 08:44:23;;;;;;;9.30;7.57;;;;;;;0.21;100.00;96079.91;5011813;28;24428;-73
2022/04/03 08:46:50;;;;;;;13.63;6.38;;;;;;;0.12;100.00;96077.53;5011014;28;24420;-73
2022/04/03 08:49:18;;;;;;;5.65;4.68;;;;;;;0.68;100.00;96088.41;5011572;28;24427;-74
2022/04/03 08:51:47;;;;;;;6.22;4.75;;;;;;;0.59;100.00;96080.91;5010849;28;24527;-73
2022/04/03 08:54:14;;;;;;;5.47;4.87;;;;;;;0.87;100.00;96083.78;5010856;28;24424;-74
2022/04/03 08:56:42;;;;;;;5.85;5.20;;;;;;;0.56;100.00;96081.00;5010612;28;24448;-73
2022/04/03 08:59:09;;;;;;;7.50;5.10;;;;;;;0.44;100.00;96086.28;5010959;28;25044;-73
2022/04/03 09:01:35;;;;;;;5.82;5.13;;;;;;;0.32;100.00;96091.59;5010707;28;24825;-74
2022/04/03 09:04:02;;;;;;;7.75;5.00;;;;;;;0.64;100.00;96085.94;5011260;28;24416;-73
2022/04/03 09:06:29;;;;;;;7.72;5.20;;;;;;;0.80;100.00;96086.47;5011004;28;24507;-73
2022/04/03 09:08:57;;;;;;;8.18;5.20;;;;;;;0.71;100.00;96087.50;5011187;28;24431;-74
2022/04/03 09:11:28;;;;;;;6.55;4.80;;;;;;;0.73;100.00;96091.69;5010260;28;24837;-74
2022/04/03 09:13:55;;;;;;;5.80;4.65;;;;;;;0.92;100.00;96096.44;5010899;28;24423;-73
2022/04/03 09:16:38;;;;;;;5.78;5.00;;;;;;;0.80;100.00;96091.56;5010885;28;24510;-74
2022/04/03 09:19:04;;;;;;;7.00;5.45;;;;;;;0.79;100.00;96095.00;5010847;28;24424;-74
2022/04/03 09:21:32;;;;;;;6.93;4.80;;;;;;;0.82;100.00;96093.22;5010168;28;24842;-74
2022/04/03 09:24:02;;;;;;;7.47;4.47;;;;;;;1.06;100.00;96091.06;5010813;28;24440;-74
2022/04/03 09:26:30;;;;;;;5.70;5.15;;;;;;;1.25;100.00;96092.34;5010470;28;24523;-74
2022/04/03 09:29:11;;;;;;;5.88;5.20;;;;;;;1.58;99.88;96093.31;5010945;28;24504;-75
2022/04/03 09:31:38;;;;;;;4.90;4.40;;;;;;;1.60;94.72;96099.25;5010233;28;24420;-74
2022/04/03 09:34:07;;;;;;;5.07;4.30;;;;;;;1.64;96.57;96097.47;5010656;28;24767;-74
2022/04/03 09:36:36;;;;;;;4.15;3.75;;;;;;;1.55;92.25;96088.28;5010353;28;24431;-74
2022/04/03 09:39:08;;;;;;;5.22;4.05;;;;;;;1.69;95.53;96104.13;5010414;28;24416;-74
2022/04/03 09:41:53;;;;;;;5.28;3.60;;;;;;;1.81;89.77;96097.91;5010341;28;24822;-74
2022/04/03 09:44:24;;;;;;;5.38;3.88;;;;;;;2.01;91.23;96105.13;5010600;28;24427;-74
2022/04/03 09:47:11;;;;;;;4.60;3.78;;;;;;;1.64;93.15;96102.56;5010387;28;24929;-74
2022/04/03 09:49:38;;;;;;;4.80;3.47;;;;;;;1.25;93.29;96099.16;5010597;28;24463;-74
2022/04/03 09:52:05;;;;;;;4.88;4.00;;;;;;;1.17;92.30;96102.72;5010153;28;24782;-74
2022/04/03 09:54:33;;;;;;;6.55;4.05;;;;;;;1.13;94.56;96103.66;5010443;28;24953;-74
2022/04/03 09:57:20;;;;;;;6.15;3.78;;;;;;;0.90;97.37;96103.28;5010190;28;24977;-74
2022/04/03 09:59:53;;;;;;;6.65;4.05;;;;;;;0.79;98.52;96112.84;5009508;28;24420;-74
2022/04/03 10:02:20;;;;;;;4.63;4.00;;;;;;;0.45;100.00;96121.94;5010577;28;24417;-74
2022/04/03 10:04:47;;;;;;;5.40;3.90;;;;;;;0.78;100.00;96113.69;5010382;28;24415;-73
2022/04/03 10:07:14;;;;;;;5.72;4.07;;;;;;;0.62;100.00;96111.44;5013014;28;24427;-74
2022/04/03 10:09:47;;;;;;;6.90;4.53;;;;;;;0.80;100.00;96115.34;5014150;28;24427;-73
2022/04/03 10:12:16;;;;;;;4.90;3.95;;;;;;;0.92;100.00;96106.63;5014036;28;24451;-74
2022/04/03 10:14:44;;;;;;;4.93;4.35;;;;;;;0.95;100.00;96109.97;5014497;28;24448;-73
2022/04/03 10:17:11;;;;;;;5.93;4.38;;;;;;;0.87;100.00;96108.44;5014453;28;24539;-73
2022/04/03 10:19:37;;;;;;;4.80;4.20;;;;;;;0.66;100.00;96115.59;5014115;28;24436;-73
2022/04/03 10:22:08;;;;;;;5.82;4.65;;;;;;;0.60;100.00;96115.75;5013822;28;24962;-74
2022/04/03 10:24:37;;;;;;;7.47;5.05;;;;;;;0.72;100.00;96115.50;5014113;28;24432;-74
2022/04/03 10:27:10;;;;;;;5.85;4.30;;;;;;;0.68;100.00;96110.50;5013958;28;24778;-73
2022/04/03 10:29:39;;;;;;;5.65;4.38;;;;;;;0.62;100.00;96113.16;5014360;28;24424;-73
2022/04/03 10:32:07;;;;;;;6.35;4.60;;;;;;;0.60;99.03;96113.19;5013915;28;24482;-73
2022/04/03 10:34:47;;;;;;;6.53;4.05;;;;;;;0.77;98.33;96109.47;5013952;28;24420;-73
2022/04/03 10:37:27;;;;;;;4.40;3.97;;;;;;;0.57;100.00;96108.16;5013570;28;25176;-73
2022/04/03 10:39:55;;;;;;;8.18;4.10;;;;;;;0.38;100.00;96111.91;5013707;28;24412;-73
2022/04/03 10:42:30;;;;;;;6.95;4.82;;;;;;;0.56;100.00;96101.38;5013828;28;24790;-72
2022/04/03 10:45:25;;;;;;;5.72;4.65;;;;;;;0.59;100.00;96103.00;5013790;28;24427;-73
2022/04/03 10:47:54;;;;;;;5.20;4.38;;;;;;;0.55;100.00;96099.66;5013390;28;24810;-73
2022/04/03 10:50:21;;;;;;;5.72;4.35;;;;;;;1.03;98.55;96104.69;5013527;28;24428;-73
2022/04/03 10:52:55;;;;;;;5.18;4.03;;;;;;;0.90;93.57;96095.63;5013695;28;24504;-73
2022/04/03 10:55:25;;;;;;;5.68;4.28;;;;;;;0.82;95.15;96093.22;5013474;28;24448;-73
2022/04/03 10:57:54;;;;;;;5.63;3.70;;;;;;;1.11;93.75;96091.78;5013129;28;24449;-73
2022/04/03 11:00:34;;;;;;;9.82;4.45;;;;;;;1.03;95.22;96097.06;5013195;28;24420;-73
2022/04/03 11:03:02;;;;;;;13.75;4.53;;;;;;;1.09;98.10;96094.38;5013466;28;24988;-73
2022/04/03 11:05:42;;;;;;;4.65;4.03;;;;;;;1.26;91.88;96090.63;5013361;28;24416;-73
2022/04/03 11:08:17;;;;;;;7.90;4.18;;;;;;;1.28;93.26;96091.44;5013274;28;24445;-73
2022/04/03 11:10:45;;;;;;;5.70;4.30;;;;;;;1.49;91.26;96095.25;5012928;28;24440;-73
2022/04/03 11:13:14;;;;;;;5.85;3.83;;;;;;;1.62;89.51;96097.50;5013072;28;24530;-73
2022/04/03 11:15:44;;;;;;;5.13;3.60;;;;;;;1.86;89.09;96091.00;5012996;28;24478;-73
2022/04/03 11:18:26;;;;;;;3.10;2.80;;;;;;;1.69;81.68;96103.31;5012140;28;24548;-72
2022/04/03 11:21:07;;;;;;;5.30;3.38;;;;;;;1.65;83.16;96087.22;5013321;28;24427;-73
2022/04/03 11:23:36;;;;;;;3.22;2.83;;;;;;;1.73;83.64;96101.53;5013080;28;24432;-73
2022/04/03 11:26:03;;;;;;;5.38;3.20;;;;;;;1.59;83.56;96097.56;5012970;28;24423;-73
2022/04/03 11:28:32;;;;;;;3.33;3.03;;;;;;;1.19;80.70;96092.50;5011711;28;24439;-72